sensor_id;sensor_type;location;lat;lon;timestamp;pressure;altitude;pressure_sealevel;temperature;humidity
14343;BME280;7255;53.596;9.960;2023-06-14T00:02:09;101636.50;;;15.26;nan
14343;BME280;7255;53.596;9.960;2023-06-14T00:04:35;101636.84;;;15.29;nan
14343;BME280;7255;53.596;9.960;2023-06-14T00:07:03;101639.09;;;15.20;nan
14343;BME280;7255;53.596;9.960;2023-06-14T00:09:31;101645.31;;;15.21;nan
14343;BME280;7255;53.596;9.960;2023-06-14T00:11:57;101634.16;;;15.17;nan
14343;BME280;7255;53.596;9.960;2023-06-14T00:14:23;101639.09;;;15.20;nan
14343;BME280;7255;53.596;9.960;2023-06-14T00:16:50;101650.03;;;15.14;nan
14343;BME280;7255;53.596;9.960;2023-06-14T00:19:18;101647.44;;;15.19;nan
14343;BME280;7255;53.596;9.960;2023-06-14T00:21:45;101647.44;;;15.19;nan
14343;BME280;7255;53.596;9.960;2023-06-14T00:24:11;101651.69;;;15.15;nan
14343;BME280;7255;53.596;9.960;2023-06-14T00:26:39;101652.16;;;15.24;nan
14343;BME280;7255;53.596;9.960;2023-06-14T00:29:05;101661.22;;;15.17;nan
14343;BME280;7255;53.596;9.960;2023-06-14T00:31:32;101662.25;;;15.05;nan
14343;BME280;7255;53.596;9.960;2023-06-14T00:33:58;101661.16;;;14.94;nan
14343;BME280;7255;53.596;9.960;2023-06-14T00:36:24;101667.37;;;14.94;nan
14343;BME280;7255;53.596;9.960;2023-06-14T00:38:50;101668.69;;;14.92;nan
14343;BME280;7255;53.596;9.960;2023-06-14T00:41:17;101665.84;;;14.87;nan
14343;BME280;7255;53.596;9.960;2023-06-14T00:43:44;101668.03;;;14.78;nan
14343;BME280;7255;53.596;9.960;2023-06-14T00:46:11;101673.94;;;14.75;nan
14343;BME280;7255;53.596;9.960;2023-06-14T00:48:38;101671.88;;;14.70;nan
14343;BME280;7255;53.596;9.960;2023-06-14T00:51:05;101673.44;;;14.78;nan
14343;BME280;7255;53.596;9.960;2023-06-14T00:53:32;101680.22;;;14.69;nan
14343;BME280;7255;53.596;9.960;2023-06-14T00:56:00;101681.06;;;14.69;nan
14343;BME280;7255;53.596;9.960;2023-06-14T00:58:27;101677.66;;;14.74;nan
14343;BME280;7255;53.596;9.960;2023-06-14T01:00:54;101683.91;;;14.74;nan
14343;BME280;7255;53.596;9.960;2023-06-14T01:03:21;101676.47;;;14.70;nan
14343;BME280;7255;53.596;9.960;2023-06-14T01:05:48;101671.63;;;14.60;nan
14343;BME280;7255;53.596;9.960;2023-06-14T01:08:23;101675.75;;;14.62;nan
14343;BME280;7255;53.596;9.960;2023-06-14T01:10:59;101684.00;;;14.68;nan
14343;BME280;7255;53.596;9.960;2023-06-14T01:13:33;101674.94;;;14.62;nan
14343;BME280;7255;53.596;9.960;2023-06-14T01:16:01;101679.88;;;14.65;nan
14343;BME280;7255;53.596;9.960;2023-06-14T01:18:29;101679.97;;;14.58;nan
14343;BME280;7255;53.596;9.960;2023-06-14T01:20:55;101681.00;;;14.57;nan
14343;BME280;7255;53.596;9.960;2023-06-14T01:23:23;101679.88;;;14.65;nan
14343;BME280;7255;53.596;9.960;2023-06-14T01:25:50;101688.69;;;14.60;nan
14343;BME280;7255;53.596;9.960;2023-06-14T01:28:19;101685.38;;;14.58;nan
14343;BME280;7255;53.596;9.960;2023-06-14T01:30:49;101694.53;;;14.57;nan
14343;BME280;7255;53.596;9.960;2023-06-14T01:33:20;101683.72;;;14.57;nan
14343;BME280;7255;53.596;9.960;2023-06-14T01:35:48;101686.19;;;14.59;nan
14343;BME280;7255;53.596;9.960;2023-06-14T01:38:16;101689.28;;;14.44;nan
14343;BME280;7255;53.596;9.960;2023-06-14T01:40:45;101691.75;;;14.46;nan
14343;BME280;7255;53.596;9.960;2023-06-14T01:43:13;101684.69;;;14.44;nan
14343;BME280;7255;53.596;9.960;2023-06-14T01:45:40;101687.84;;;14.41;nan
14343;BME280;7255;53.596;9.960;2023-06-14T01:48:08;101687.59;;;14.43;nan
14343;BME280;7255;53.596;9.960;2023-06-14T01:50:34;101682.28;;;14.36;nan
14343;BME280;7255;53.596;9.960;2023-06-14T01:53:00;101682.81;;;14.27;nan
14343;BME280;7255;53.596;9.960;2023-06-14T01:55:27;101683.56;;;14.34;nan
14343;BME280;7255;53.596;9.960;2023-06-14T01:57:54;101684.03;;;14.31;nan
14343;BME280;7255;53.596;9.960;2023-06-14T02:00:21;101680.72;;;14.29;nan
14343;BME280;7255;53.596;9.960;2023-06-14T02:02:47;101691.53;;;14.29;nan
14343;BME280;7255;53.596;9.960;2023-06-14T02:05:14;101690.31;;;14.24;nan
14343;BME280;7255;53.596;9.960;2023-06-14T02:07:40;101685.00;;;14.18;nan
14343;BME280;7255;53.596;9.960;2023-06-14T02:10:07;101698.75;;;14.16;nan
14343;BME280;7255;53.596;9.960;2023-06-14T02:12:33;101692.06;;;14.19;nan
14343;BME280;7255;53.596;9.960;2023-06-14T02:15:01;101685.06;;;14.11;nan
14343;BME280;7255;53.596;9.960;2023-06-14T02:17:27;101682.66;;;14.03;nan
14343;BME280;7255;53.596;9.960;2023-06-14T02:19:53;101685.66;;;13.95;nan
14343;BME280;7255;53.596;9.960;2023-06-14T02:22:20;101683.19;;;13.93;nan
14343;BME280;7255;53.596;9.960;2023-06-14T02:24:47;101685.34;;;13.84;nan
14343;BME280;7255;53.596;9.960;2023-06-14T02:27:13;101692.78;;;13.89;nan
14343;BME280;7255;53.596;9.960;2023-06-14T02:29:40;101694.81;;;13.94;nan
14343;BME280;7255;53.596;9.960;2023-06-14T02:32:09;101695.72;;;13.88;nan
14343;BME280;7255;53.596;9.960;2023-06-14T02:34:35;101695.72;;;13.88;nan
14343;BME280;7255;53.596;9.960;2023-06-14T02:37:02;101699.47;;;13.86;nan
14343;BME280;7255;53.596;9.960;2023-06-14T02:39:28;101691.59;;;13.85;nan
14343;BME280;7255;53.596;9.960;2023-06-14T02:41:55;101690.31;;;13.88;nan
14343;BME280;7255;53.596;9.960;2023-06-14T02:44:24;101690.75;;;13.84;nan
14343;BME280;7255;53.596;9.960;2023-06-14T02:46:50;101691.13;;;13.88;nan
14343;BME280;7255;53.596;9.960;2023-06-14T02:49:18;101700.69;;;13.91;nan
14343;BME280;7255;53.596;9.960;2023-06-14T02:51:44;101696.78;;;13.86;nan
14343;BME280;7255;53.596;9.960;2023-06-14T02:54:10;101708.66;;;13.79;nan
14343;BME280;7255;53.596;9.960;2023-06-14T02:56:37;101705.44;;;13.70;nan
14343;BME280;7255;53.596;9.960;2023-06-14T02:59:03;101692.97;;;13.69;nan
14343;BME280;7255;53.596;9.960;2023-06-14T03:01:29;101699.28;;;13.63;nan
14343;BME280;7255;53.596;9.960;2023-06-14T03:04:00;101717.50;;;13.67;nan
14343;BME280;7255;53.596;9.960;2023-06-14T03:06:27;101707.09;;;13.71;nan
14343;BME280;7255;53.596;9.960;2023-06-14T03:08:54;101705.88;;;13.67;nan
14343;BME280;7255;53.596;9.960;2023-06-14T03:11:22;101709.94;;;13.76;nan
14343;BME280;7255;53.596;9.960;2023-06-14T03:13:49;101699.16;;;13.76;nan
14343;BME280;7255;53.596;9.960;2023-06-14T03:16:16;101719.16;;;13.69;nan
14343;BME280;7255;53.596;9.960;2023-06-14T03:18:44;101719.56;;;13.72;nan
14343;BME280;7255;53.596;9.960;2023-06-14T03:21:10;101715.78;;;13.73;nan
14343;BME280;7255;53.596;9.960;2023-06-14T03:23:38;101722.03;;;13.74;nan
14343;BME280;7255;53.596;9.960;2023-06-14T03:26:04;101718.66;;;13.78;nan
14343;BME280;7255;53.596;9.960;2023-06-14T03:28:31;101722.84;;;13.74;nan
14343;BME280;7255;53.596;9.960;2023-06-14T03:30:57;101729.88;;;13.75;nan
14343;BME280;7255;53.596;9.960;2023-06-14T03:33:23;101719.56;;;13.72;nan
14343;BME280;7255;53.596;9.960;2023-06-14T03:35:51;101720.16;;;13.74;nan
14343;BME280;7255;53.596;9.960;2023-06-14T03:38:17;101717.75;;;13.84;nan
14343;BME280;7255;53.596;9.960;2023-06-14T03:40:45;101726.50;;;13.86;nan
14343;BME280;7255;53.596;9.960;2023-06-14T03:43:11;101728.47;;;13.98;nan
14343;BME280;7255;53.596;9.960;2023-06-14T03:45:38;101724.63;;;14.05;nan
14343;BME280;7255;53.596;9.960;2023-06-14T03:48:05;101729.06;;;14.18;nan
14343;BME280;7255;53.596;9.960;2023-06-14T03:50:33;101728.84;;;14.38;nan
14343;BME280;7255;53.596;9.960;2023-06-14T03:53:03;101732.09;;;14.47;nan
14343;BME280;7255;53.596;9.960;2023-06-14T03:55:29;101747.72;;;14.63;nan
14343;BME280;7255;53.596;9.960;2023-06-14T03:57:57;101751.59;;;14.86;nan
14343;BME280;7255;53.596;9.960;2023-06-14T04:00:23;101754.91;;;14.88;nan
14343;BME280;7255;53.596;9.960;2023-06-14T04:02:50;101766.63;;;14.82;nan
14343;BME280;7255;53.596;9.960;2023-06-14T04:05:17;101760.94;;;14.72;nan
14343;BME280;7255;53.596;9.960;2023-06-14T04:07:44;101761.84;;;14.66;nan
14343;BME280;7255;53.596;9.960;2023-06-14T04:10:11;101756.50;;;14.59;nan
14343;BME280;7255;53.596;9.960;2023-06-14T04:12:37;101764.41;;;14.60;nan
14343;BME280;7255;53.596;9.960;2023-06-14T04:15:06;101780.19;;;14.63;nan
14343;BME280;7255;53.596;9.960;2023-06-14T04:17:33;101781.81;;;14.65;nan
14343;BME280;7255;53.596;9.960;2023-06-14T04:19:59;101792.19;;;14.68;nan
14343;BME280;7255;53.596;9.960;2023-06-14T04:22:26;101796.78;;;14.67;nan
14343;BME280;7255;53.596;9.960;2023-06-14T04:24:54;101793.84;;;14.69;nan
14343;BME280;7255;53.596;9.960;2023-06-14T04:27:21;101785.50;;;14.70;nan
14343;BME280;7255;53.596;9.960;2023-06-14T04:29:50;101785.87;;;14.74;nan
14343;BME280;7255;53.596;9.960;2023-06-14T04:32:23;101799.56;;;14.79;nan
14343;BME280;7255;53.596;9.960;2023-06-14T04:34:51;101787.91;;;14.78;nan
14343;BME280;7255;53.596;9.960;2023-06-14T04:37:18;101795.31;;;14.83;nan
14343;BME280;7255;53.596;9.960;2023-06-14T04:39:46;101805.72;;;14.86;nan
14343;BME280;7255;53.596;9.960;2023-06-14T04:42:12;101794.81;;;14.93;nan
14343;BME280;7255;53.596;9.960;2023-06-14T04:44:40;101798.00;;;15.01;nan
14343;BME280;7255;53.596;9.960;2023-06-14T04:47:06;101798.66;;;15.15;nan
14343;BME280;7255;53.596;9.960;2023-06-14T04:49:34;101797.38;;;15.18;nan
14343;BME280;7255;53.596;9.960;2023-06-14T04:52:00;101790.00;;;15.25;nan
14343;BME280;7255;53.596;9.960;2023-06-14T04:54:27;101785.16;;;15.27;nan
14343;BME280;7255;53.596;9.960;2023-06-14T04:56:56;101780.72;;;15.33;nan
14343;BME280;7255;53.596;9.960;2023-06-14T04:59:22;101785.44;;;15.37;nan
14343;BME280;7255;53.596;9.960;2023-06-14T05:01:49;101797.81;;;15.45;nan
14343;BME280;7255;53.596;9.960;2023-06-14T05:04:16;101793.41;;;15.63;nan
14343;BME280;7255;53.596;9.960;2023-06-14T05:06:45;101805.22;;;15.80;nan
14343;BME280;7255;53.596;9.960;2023-06-14T05:09:13;101803.47;;;15.86;nan
14343;BME280;7255;53.596;9.960;2023-06-14T05:11:40;101791.72;;;15.92;nan
14343;BME280;7255;53.596;9.960;2023-06-14T05:14:07;101795.94;;;15.88;nan
14343;BME280;7255;53.596;9.960;2023-06-14T05:16:33;101787.94;;;15.93;nan
14343;BME280;7255;53.596;9.960;2023-06-14T05:19:00;101787.47;;;15.96;nan
14343;BME280;7255;53.596;9.960;2023-06-14T05:21:26;101794.16;;;15.93;nan
14343;BME280;7255;53.596;9.960;2023-06-14T05:23:54;101783.44;;;15.87;nan
14343;BME280;7255;53.596;9.960;2023-06-14T05:26:20;101795.00;;;15.94;nan
14343;BME280;7255;53.596;9.960;2023-06-14T05:28:48;101799.84;;;16.27;nan
14343;BME280;7255;53.596;9.960;2023-06-14T05:31:15;101797.59;;;16.36;nan
14343;BME280;7255;53.596;9.960;2023-06-14T05:33:42;101810.13;;;16.78;nan
14343;BME280;7255;53.596;9.960;2023-06-14T05:36:08;101817.31;;;17.24;nan
14343;BME280;7255;53.596;9.960;2023-06-14T05:38:34;101820.03;;;17.24;nan
14343;BME280;7255;53.596;9.960;2023-06-14T05:41:02;101809.66;;;17.21;nan
14343;BME280;7255;53.596;9.960;2023-06-14T05:43:28;101820.37;;;17.28;nan
14343;BME280;7255;53.596;9.960;2023-06-14T05:45:55;101809.66;;;17.21;nan
14343;BME280;7255;53.596;9.960;2023-06-14T05:48:21;101812.94;;;17.23;nan
14343;BME280;7255;53.596;9.960;2023-06-14T05:50:47;101810.28;;;17.11;nan
14343;BME280;7255;53.596;9.960;2023-06-14T05:53:14;101813.78;;;17.24;nan
14343;BME280;7255;53.596;9.960;2023-06-14T05:55:40;101809.72;;;17.38;nan
14343;BME280;7255;53.596;9.960;2023-06-14T05:58:08;101817.78;;;17.50;nan
14343;BME280;7255;53.596;9.960;2023-06-14T06:00:35;101823.56;;;17.70;nan
14343;BME280;7255;53.596;9.960;2023-06-14T06:03:02;101822.63;;;17.77;nan
14343;BME280;7255;53.596;9.960;2023-06-14T06:05:28;101826.09;;;17.89;nan
14343;BME280;7255;53.596;9.960;2023-06-14T06:07:54;101819.84;;;17.88;nan
14343;BME280;7255;53.596;9.960;2023-06-14T06:10:21;101830.37;;;18.02;nan
14343;BME280;7255;53.596;9.960;2023-06-14T06:12:47;101823.75;;;18.15;nan
14343;BME280;7255;53.596;9.960;2023-06-14T06:15:15;101826.22;;;18.33;nan
14343;BME280;7255;53.596;9.960;2023-06-14T06:17:42;101831.00;;;18.43;nan
14343;BME280;7255;53.596;9.960;2023-06-14T06:20:09;101833.59;;;18.55;nan
14343;BME280;7255;53.596;9.960;2023-06-14T06:22:36;101836.00;;;18.73;nan
14343;BME280;7255;53.596;9.960;2023-06-14T06:25:03;101842.66;;;18.60;nan
14343;BME280;7255;53.596;9.960;2023-06-14T06:27:31;101835.91;;;18.63;nan
14343;BME280;7255;53.596;9.960;2023-06-14T06:29:58;101850.34;;;18.85;nan
14343;BME280;7255;53.596;9.960;2023-06-14T06:32:25;101852.31;;;18.90;nan
14343;BME280;7255;53.596;9.960;2023-06-14T06:34:52;101857.28;;;18.76;nan
14343;BME280;7255;53.596;9.960;2023-06-14T06:37:19;101853.06;;;19.08;nan
14343;BME280;7255;53.596;9.960;2023-06-14T06:39:45;101846.91;;;19.17;nan
14343;BME280;7255;53.596;9.960;2023-06-14T06:42:12;101845.91;;;19.23;nan
14343;BME280;7255;53.596;9.960;2023-06-14T06:44:39;101855.91;;;19.40;nan
14343;BME280;7255;53.596;9.960;2023-06-14T06:47:05;101852.88;;;19.41;nan
14343;BME280;7255;53.596;9.960;2023-06-14T06:49:33;101863.59;;;19.48;nan
14343;BME280;7255;53.596;9.960;2023-06-14T06:52:00;101854.34;;;19.49;nan
14343;BME280;7255;53.596;9.960;2023-06-14T06:54:28;101868.94;;;19.65;nan
14343;BME280;7255;53.596;9.960;2023-06-14T06:56:54;101862.56;;;19.81;nan
14343;BME280;7255;53.596;9.960;2023-06-14T06:59:21;101873.78;;;19.85;nan
14343;BME280;7255;53.596;9.960;2023-06-14T07:01:47;101877.97;;;19.98;nan
14343;BME280;7255;53.596;9.960;2023-06-14T07:04:14;101870.41;;;19.73;nan
14343;BME280;7255;53.596;9.960;2023-06-14T07:06:42;101883.38;;;19.88;nan
14343;BME280;7255;53.596;9.960;2023-06-14T07:09:09;101886.94;;;19.93;nan
14343;BME280;7255;53.596;9.960;2023-06-14T07:11:37;101886.00;;;20.10;nan
14343;BME280;7255;53.596;9.960;2023-06-14T07:14:04;101888.22;;;20.18;nan
14343;BME280;7255;53.596;9.960;2023-06-14T07:16:30;101887.94;;;20.14;nan
14343;BME280;7255;53.596;9.960;2023-06-14T07:18:57;101883.16;;;20.32;nan
14343;BME280;7255;53.596;9.960;2023-06-14T07:21:23;101893.25;;;20.31;nan
14343;BME280;7255;53.596;9.960;2023-06-14T07:23:52;101892.50;;;20.41;nan
14343;BME280;7255;53.596;9.960;2023-06-14T07:26:18;101888.97;;;20.46;nan
14343;BME280;7255;53.596;9.960;2023-06-14T07:28:45;101890.84;;;20.40;nan
14343;BME280;7255;53.596;9.960;2023-06-14T07:31:12;101877.31;;;20.55;nan
14343;BME280;7255;53.596;9.960;2023-06-14T07:33:40;101891.97;;;20.44;nan
14343;BME280;7255;53.596;9.960;2023-06-14T07:36:06;101887.41;;;20.60;nan
14343;BME280;7255;53.596;9.960;2023-06-14T07:38:33;101884.81;;;20.81;nan
14343;BME280;7255;53.596;9.960;2023-06-14T07:41:01;101880.50;;;20.85;nan
14343;BME280;7255;53.596;9.960;2023-06-14T07:43:27;101879.94;;;20.88;nan
14343;BME280;7255;53.596;9.960;2023-06-14T07:45:54;101879.44;;;20.96;nan
14343;BME280;7255;53.596;9.960;2023-06-14T07:48:20;101884.06;;;20.90;nan
14343;BME280;7255;53.596;9.960;2023-06-14T07:50:47;101883.25;;;20.95;nan
14343;BME280;7255;53.596;9.960;2023-06-14T07:53:13;101887.66;;;21.06;nan
14343;BME280;7255;53.596;9.960;2023-06-14T07:55:39;101891.50;;;21.05;nan
14343;BME280;7255;53.596;9.960;2023-06-14T07:58:09;101884.09;;;21.01;nan
14343;BME280;7255;53.596;9.960;2023-06-14T08:00:36;101888.81;;;21.10;nan
14343;BME280;7255;53.596;9.960;2023-06-14T08:03:02;101888.28;;;21.24;nan
14343;BME280;7255;53.596;9.960;2023-06-14T08:05:29;101894.28;;;21.21;nan
14343;BME280;7255;53.596;9.960;2023-06-14T08:07:55;101888.81;;;21.10;nan
14343;BME280;7255;53.596;9.960;2023-06-14T08:10:22;101876.78;;;21.17;nan
14343;BME280;7255;53.596;9.960;2023-06-14T08:12:48;101884.78;;;21.39;nan
14343;BME280;7255;53.596;9.960;2023-06-14T08:15:17;101878.50;;;21.38;nan
14343;BME280;7255;53.596;9.960;2023-06-14T08:17:43;101887.84;;;21.52;nan
14343;BME280;7255;53.596;9.960;2023-06-14T08:20:11;101887.03;;;21.57;nan
14343;BME280;7255;53.596;9.960;2023-06-14T08:22:38;101876.09;;;21.57;nan
14343;BME280;7255;53.596;9.960;2023-06-14T08:25:08;101871.19;;;21.54;nan
14343;BME280;7255;53.596;9.960;2023-06-14T08:27:34;101879.12;;;21.76;nan
14343;BME280;7255;53.596;9.960;2023-06-14T08:30:00;101877.75;;;21.68;nan
14343;BME280;7255;53.596;9.960;2023-06-14T08:32:29;101887.31;;;21.81;nan
14343;BME280;7255;53.596;9.960;2023-06-14T08:34:55;101883.50;;;21.82;nan
14343;BME280;7255;53.596;9.960;2023-06-14T08:37:21;101881.84;;;21.81;nan
14343;BME280;7255;53.596;9.960;2023-06-14T08:39:48;101875.88;;;21.95;nan
14343;BME280;7255;53.596;9.960;2023-06-14T08:42:15;101875.56;;;22.11;nan
14343;BME280;7255;53.596;9.960;2023-06-14T08:44:42;101872.56;;;22.08;nan
14343;BME280;7255;53.596;9.960;2023-06-14T08:47:09;101880.78;;;22.08;nan
14343;BME280;7255;53.596;9.960;2023-06-14T08:49:37;101874.19;;;22.24;nan
14343;BME280;7255;53.596;9.960;2023-06-14T08:52:05;101880.50;;;22.15;nan
14343;BME280;7255;53.596;9.960;2023-06-14T08:54:36;101884.06;;;22.10;nan
14343;BME280;7255;53.596;9.960;2023-06-14T08:57:10;101877.78;;;22.09;nan
14343;BME280;7255;53.596;9.960;2023-06-14T08:59:40;101885.13;;;22.19;nan
14343;BME280;7255;53.596;9.960;2023-06-14T09:02:12;101889.53;;;22.30;nan
14343;BME280;7255;53.596;9.960;2023-06-14T09:04:39;101884.06;;;22.41;nan
14343;BME280;7255;53.596;9.960;2023-06-14T09:07:06;101879.66;;;22.55;nan
14343;BME280;7255;53.596;9.960;2023-06-14T09:09:32;101888.91;;;22.70;nan
14343;BME280;7255;53.596;9.960;2023-06-14T09:12:07;101887.19;;;22.84;nan
14343;BME280;7255;53.596;9.960;2023-06-14T09:14:35;101895.41;;;22.89;nan
14343;BME280;7255;53.596;9.960;2023-06-14T09:17:05;101883.09;;;22.86;nan
14343;BME280;7255;53.596;9.960;2023-06-14T09:19:31;101889.38;;;22.92;nan
14343;BME280;7255;53.596;9.960;2023-06-14T09:21:59;101894.34;;;22.85;nan
14343;BME280;7255;53.596;9.960;2023-06-14T09:24:25;101880.09;;;22.88;nan
14343;BME280;7255;53.596;9.960;2023-06-14T09:26:53;101881.66;;;23.10;nan
14343;BME280;7255;53.596;9.960;2023-06-14T09:29:19;101877.72;;;23.26;nan
14343;BME280;7255;53.596;9.960;2023-06-14T09:31:46;101874.19;;;23.25;nan
14343;BME280;7255;53.596;9.960;2023-06-14T09:34:12;101888.59;;;23.47;nan
14343;BME280;7255;53.596;9.960;2023-06-14T09:36:39;101885.31;;;23.44;nan
14343;BME280;7255;53.596;9.960;2023-06-14T09:39:09;101873.25;;;23.40;nan
14343;BME280;7255;53.596;9.960;2023-06-14T09:41:36;101885.66;;;23.28;nan
14343;BME280;7255;53.596;9.960;2023-06-14T09:44:05;101879.62;;;23.31;nan
14343;BME280;7255;53.596;9.960;2023-06-14T09:46:32;101881.47;;;23.45;nan
14343;BME280;7255;53.596;9.960;2023-06-14T09:48:59;101890.13;;;23.63;nan
14343;BME280;7255;53.596;9.960;2023-06-14T09:51:27;101877.63;;;23.47;nan
14343;BME280;7255;53.596;9.960;2023-06-14T09:53:58;101878.94;;;23.54;nan
14343;BME280;7255;53.596;9.960;2023-06-14T09:56:28;101889.00;;;23.64;nan
14343;BME280;7255;53.596;9.960;2023-06-14T09:58:56;101885.88;;;23.86;nan
14343;BME280;7255;53.596;9.960;2023-06-14T10:01:24;101891.59;;;23.90;nan
14343;BME280;7255;53.596;9.960;2023-06-14T10:03:55;101891.28;;;23.96;nan
14343;BME280;7255;53.596;9.960;2023-06-14T10:06:22;101883.09;;;24.20;nan
14343;BME280;7255;53.596;9.960;2023-06-14T10:08:50;101888.91;;;24.43;nan
14343;BME280;7255;53.596;9.960;2023-06-14T10:11:18;101875.69;;;24.45;nan
14343;BME280;7255;53.596;9.960;2023-06-14T10:13:46;101877.84;;;24.53;nan
14343;BME280;7255;53.596;9.960;2023-06-14T10:16:17;101881.94;;;24.56;nan
14343;BME280;7255;53.596;9.960;2023-06-14T10:18:50;101882.28;;;24.49;nan
14343;BME280;7255;53.596;9.960;2023-06-14T10:21:22;101891.78;;;24.33;nan
14343;BME280;7255;53.596;9.960;2023-06-14T10:23:52;101884.97;;;24.54;nan
14343;BME280;7255;53.596;9.960;2023-06-14T10:26:20;101875.56;;;24.85;nan
14343;BME280;7255;53.596;9.960;2023-06-14T10:28:57;101881.69;;;25.01;nan
14343;BME280;7255;53.596;9.960;2023-06-14T10:31:40;101873.78;;;24.75;nan
14343;BME280;7255;53.596;9.960;2023-06-14T10:34:07;101870.81;;;24.90;nan
14343;BME280;7255;53.596;9.960;2023-06-14T10:36:34;101876.03;;;25.11;nan
14343;BME280;7255;53.596;9.960;2023-06-14T10:39:04;101869.69;;;25.34;nan
14343;BME280;7255;53.596;9.960;2023-06-14T10:41:34;101869.59;;;25.78;nan
14343;BME280;7255;53.596;9.960;2023-06-14T10:44:33;101872.25;;;25.50;nan
14343;BME280;7255;53.596;9.960;2023-06-14T10:47:00;101867.84;;;25.30;nan
14343;BME280;7255;53.596;9.960;2023-06-14T10:49:37;101862.97;;;25.03;nan
14343;BME280;7255;53.596;9.960;2023-06-14T10:52:08;101863.09;;;24.92;nan
14343;BME280;7255;53.596;9.960;2023-06-14T10:55:05;101864.50;;;24.90;nan
14343;BME280;7255;53.596;9.960;2023-06-14T10:57:35;101857.94;;;25.10;nan
14343;BME280;7255;53.596;9.960;2023-06-14T11:00:03;101856.09;;;25.43;nan
14343;BME280;7255;53.596;9.960;2023-06-14T11:03:20;101854.59;;;25.70;nan
14343;BME280;7255;53.596;9.960;2023-06-14T11:05:54;101853.69;;;26.07;nan
14343;BME280;7255;53.596;9.960;2023-06-14T11:08:32;101852.47;;;26.13;nan
14343;BME280;7255;53.596;9.960;2023-06-14T11:11:06;101846.28;;;26.22;nan
14343;BME280;7255;53.596;9.960;2023-06-14T11:13:32;101847.03;;;26.41;nan
14343;BME280;7255;53.596;9.960;2023-06-14T11:16:00;101843.94;;;26.57;nan
14343;BME280;7255;53.596;9.960;2023-06-14T11:18:28;101841.94;;;26.62;nan
14343;BME280;7255;53.596;9.960;2023-06-14T11:20:55;101845.38;;;26.96;nan
14343;BME280;7255;53.596;9.960;2023-06-14T11:23:21;101840.41;;;27.20;nan
14343;BME280;7255;53.596;9.960;2023-06-14T11:25:49;101837.31;;;27.36;nan
14343;BME280;7255;53.596;9.960;2023-06-14T11:28:16;101840.97;;;27.45;nan
14343;BME280;7255;53.596;9.960;2023-06-14T11:30:44;101825.53;;;27.07;nan
14343;BME280;7255;53.596;9.960;2023-06-14T11:33:16;101822.03;;;27.30;nan
14343;BME280;7255;53.596;9.960;2023-06-14T11:35:43;101825.97;;;27.60;nan
14343;BME280;7255;53.596;9.960;2023-06-14T11:38:10;101830.63;;;27.73;nan
14343;BME280;7255;53.596;9.960;2023-06-14T11:40:38;101820.97;;;27.25;nan
14343;BME280;7255;53.596;9.960;2023-06-14T11:43:04;101822.41;;;27.23;nan
14343;BME280;7255;53.596;9.960;2023-06-14T11:45:31;101818.44;;;26.79;nan
14343;BME280;7255;53.596;9.960;2023-06-14T11:47:58;101819.06;;;26.34;nan
14343;BME280;7255;53.596;9.960;2023-06-14T11:50:27;101827.63;;;26.74;nan
14343;BME280;7255;53.596;9.960;2023-06-14T11:52:54;101818.19;;;27.03;nan
14343;BME280;7255;53.596;9.960;2023-06-14T11:55:21;101816.56;;;27.02;nan
14343;BME280;7255;53.596;9.960;2023-06-14T11:57:48;101809.94;;;27.25;nan
14343;BME280;7255;53.596;9.960;2023-06-14T12:00:15;101807.66;;;27.05;nan
14343;BME280;7255;53.596;9.960;2023-06-14T12:02:42;101816.00;;;26.77;nan
14343;BME280;7255;53.596;9.960;2023-06-14T12:05:09;101815.09;;;27.18;nan
14343;BME280;7255;53.596;9.960;2023-06-14T12:07:37;101815.41;;;27.53;nan
14343;BME280;7255;53.596;9.960;2023-06-14T12:10:06;101811.62;;;27.72;nan
14343;BME280;7255;53.596;9.960;2023-06-14T12:12:37;101812.03;;;27.65;nan
14343;BME280;7255;53.596;9.960;2023-06-14T12:15:04;101807.84;;;27.68;nan
14343;BME280;7255;53.596;9.960;2023-06-14T12:17:32;101803.81;;;27.51;nan
14343;BME280;7255;53.596;9.960;2023-06-14T12:20:04;101802.84;;;27.70;nan
14343;BME280;7255;53.596;9.960;2023-06-14T12:22:33;101800.44;;;27.54;nan
14343;BME280;7255;53.596;9.960;2023-06-14T12:25:01;101800.19;;;27.64;nan
14343;BME280;7255;53.596;9.960;2023-06-14T12:27:28;101796.03;;;27.76;nan
14343;BME280;7255;53.596;9.960;2023-06-14T12:30:01;101788.75;;;28.02;nan
14343;BME280;7255;53.596;9.960;2023-06-14T12:32:28;101799.69;;;27.40;nan
14343;BME280;7255;53.596;9.960;2023-06-14T12:34:54;101794.75;;;27.51;nan
14343;BME280;7255;53.596;9.960;2023-06-14T12:37:20;101791.81;;;27.78;nan
14343;BME280;7255;53.596;9.960;2023-06-14T12:39:47;101797.44;;;27.64;nan
14343;BME280;7255;53.596;9.960;2023-06-14T12:42:15;101795.78;;;27.86;nan
14343;BME280;7255;53.596;9.960;2023-06-14T12:44:41;101801.25;;;27.55;nan
14343;BME280;7255;53.596;9.960;2023-06-14T12:47:07;101795.63;;;27.37;nan
14343;BME280;7255;53.596;9.960;2023-06-14T12:49:34;101789.09;;;27.56;nan
14343;BME280;7255;53.596;9.960;2023-06-14T12:52:00;101789.69;;;27.44;nan
14343;BME280;7255;53.596;9.960;2023-06-14T12:54:27;101786.09;;;27.07;nan
14343;BME280;7255;53.596;9.960;2023-06-14T12:56:53;101789.00;;;27.02;nan
14343;BME280;7255;53.596;9.960;2023-06-14T12:59:21;101788.94;;;27.30;nan
14343;BME280;7255;53.596;9.960;2023-06-14T13:01:47;101792.00;;;27.28;nan
14343;BME280;7255;53.596;9.960;2023-06-14T13:04:15;101788.03;;;27.43;nan
14343;BME280;7255;53.596;9.960;2023-06-14T13:06:41;101782.53;;;27.43;nan
14343;BME280;7255;53.596;9.960;2023-06-14T13:09:08;101791.72;;;27.38;nan
14343;BME280;7255;53.596;9.960;2023-06-14T13:11:34;101793.19;;;27.36;nan
14343;BME280;7255;53.596;9.960;2023-06-14T13:14:01;101791.38;;;27.31;nan
14343;BME280;7255;53.596;9.960;2023-06-14T13:16:29;101786.28;;;27.11;nan
14343;BME280;7255;53.596;9.960;2023-06-14T13:18:55;101781.31;;;26.76;nan
14343;BME280;7255;53.596;9.960;2023-06-14T13:21:21;101781.88;;;26.59;nan
14343;BME280;7255;53.596;9.960;2023-06-14T13:23:48;101777.22;;;26.60;nan
14343;BME280;7255;53.596;9.960;2023-06-14T13:26:14;101771.09;;;26.77;nan